Cambridge, MA (02138)

8:05 PM EDT on March 26, 2015 (GMT -0400)
Huron Village | | Change Station
CLOSE
Current Station
Personal Weather Station
Location: Cambridge, MA
Elevation: 62 ft
Nearby Weather Stations

Elev 62 ft 42.38 °N, 71.13 °W | Updated 3 minutes ago

Rain
Rain
47.8 °F
Feels Like 48 °F
N
0.0
Wind Variable Wind from North
Gusts 1.0 mph

Today
High -- | Low -- °F
--% Chance of Precip.
Yesterday
High -- | Low -- °F
Precip. -- in
6:37 AM 7:03 PM
Waxing Crescent, 47% visible
Pressure 29.64 in
Visibility 1.2 miles
Clouds Mostly Cloudy 700 ft
Overcast 2200 ft
Windchill 48 °F
Dew Point 48 °F
Humidity 99%
Rainfall 0.63 in
Snow Depth Not available.
UV 0 out of 12
Pollen 3.50 out of 12
Air Quality Not available.
Flu Activity Not available.
METAR KBOS 262354Z 02005KT 1 1/4SM R04R/2600VP6000FT RA BR BKN007 OVC022 09/08 A2964 RMK AO2 SFC VIS 2 SLP036 P0009 60060 T00890083 10122 20089 58008

More Conditions Fewer Conditions

Pressure 29.64 in
Visibility 1.2 miles
Clouds Mostly Cloudy 700 ft
Overcast 2200 ft
Windchill 48 °F
Dew Point 48 °F
Humidity 99%
Rainfall 0.63 in
Snow Depth Not available.
UV 0 out of 12
Pollen 3.50 out of 12
Air Quality Not available.
Flu Activity Not available.
METAR KBOS 262354Z 02005KT 1 1/4SM R04R/2600VP6000FT RA BR BKN007 OVC022 09/08 A2964 RMK AO2 SFC VIS 2 SLP036 P0009 60060 T00890083 10122 20089 58008

More Conditions Fewer Conditions

10-Day Weather Forecast

Almanac

Astronomy

Mar. 26, 2015 Rise Set
Actual Time
Civil Twilight
Nautical Twilight
Astronomical Twilight
Moon
Length of Visible Light
Length of Day
Tomorrow will be .
, % of the Moon is Illuminated

Today's Extremes

State Highs State Lows

Community

WunderPhotos

Upload Photos

1,808,651 photos uploaded!

WunderBlogs® & News

Nearby

Air Quality

  Air Quality AQ Index Pollutant
Not available.

Snow Depth

Station Depth Elevation

Earthquake Activity

City Distance Mag. Time & Date
Minimum magnitude displayed is 2.5.

Coastal Water Temperatures

Place Temperature

Stations

Nearby Weather Stations

Station Location Temp. Windchill Dew Point Humidity Wind Precip. Elev Updated Type